Bookmark and Share
Track history (hours):
 

Christian Reinauer

More information available from US FCC via Universal Licensing System and Coast Guard Vessel Documentation Center.

Last reported at 2014-Apr-17 12:33 UTC. Time now 2014-Apr-17 12:43 UTC.
Position N 27°55' W 082°27'.

Length 170 m; draft 8.5 m.

Type: Ship (hazmat cat B). MMSI: 366832740.

NotesDate/timePositionNaut miles runAvg speedWind from/ knotsBaromVisibWave heightAir tempDewpointWater temp
2014-Apr-17 12:33N 27°55' W 082°27'0 0.2
2014-Apr-17 11:31N 27°55' W 082°27'0 0.0
2014-Apr-17 10:31N 27°55' W 082°27'0 0.0
2014-Apr-17 09:31N 27°55' W 082°27'0 0.0
2014-Apr-17 08:31N 27°55' W 082°27'0 0.0
2014-Apr-17 07:31N 27°55' W 082°27'0 0.0
2014-Apr-17 06:31N 27°55' W 082°27'0 0.0
2014-Apr-17 05:31N 27°55' W 082°27'0 0.0
2014-Apr-17 04:31N 27°55' W 082°27'0 0.0
2014-Apr-17 03:31N 27°55' W 082°27'0 0.0
2014-Apr-17 02:33N 27°55' W 082°27'5 5.1
2014-Apr-17 01:34N 27°50' W 082°27'10 9.5
2014-Apr-17 00:33N 27°42' W 082°33'  
2014-Apr-14 05:33N 29°56' W 090°22'4 0.5
2014-Apr-13 21:31N 29°60' W 090°24'0 0.0
2014-Apr-13 20:31N 29°60' W 090°24'0 0.0
2014-Apr-13 19:31N 29°60' W 090°24'0 0.0
2014-Apr-13 18:31N 29°60' W 090°24'0 0.0
2014-Apr-13 17:31N 29°60' W 090°24'0 0.0
2014-Apr-13 16:31N 29°60' W 090°24'0 0.0
2014-Apr-13 15:28N 29°60' W 090°24'0 0.0
2014-Apr-13 12:31N 29°60' W 090°24'0 0.0
2014-Apr-13 11:31N 29°60' W 090°24'0 0.0
2014-Apr-13 10:28N 29°60' W 090°24'0 0.0
2014-Apr-13 09:31N 29°60' W 090°24'0 0.0
2014-Apr-13 08:31N 29°60' W 090°24'0 0.0
2014-Apr-13 07:28N 29°60' W 090°24'0 0.0
2014-Apr-13 06:33N 29°60' W 090°24'0 0.0
2014-Apr-13 05:33N 29°60' W 090°24'0 0.1
2014-Apr-13 04:34N 29°60' W 090°24'6 5.6
2014-Apr-13 03:32N 29°57' W 090°19'  
2014-Apr-10 13:18N 27°43' W 082°33'6 8.0
2014-Apr-10 12:31N 27°49' W 082°34'3 3.1
2014-Apr-10 11:33N 27°52' W 082°33'0 0.0
2014-Apr-10 10:33N 27°52' W 082°33'0 0.0
2014-Apr-10 09:32N 27°52' W 082°33'0 0.0
2014-Apr-10 08:32N 27°52' W 082°33'0 0.0
2014-Apr-10 07:32N 27°52' W 082°33'0 0.0
2014-Apr-10 06:32N 27°52' W 082°33'0 0.0
2014-Apr-10 05:32N 27°52' W 082°33'0 0.0
2014-Apr-10 04:32N 27°52' W 082°33'0 0.0
2014-Apr-10 03:32N 27°52' W 082°33'0 0.0
2014-Apr-10 02:32N 27°52' W 082°33'0 0.0
2014-Apr-10 01:32N 27°52' W 082°33'0 0.0
2014-Apr-10 00:32N 27°52' W 082°33'0 0.0
2014-Apr-09 23:32N 27°52' W 082°33'0 0.0
2014-Apr-09 22:32N 27°52' W 082°33'0 0.0
2014-Apr-09 21:32N 27°52' W 082°33'0 0.0
2014-Apr-09 20:32N 27°52' W 082°33'0 0.0
2014-Apr-09 19:32N 27°52' W 082°33'0 0.0
2014-Apr-09 18:33N 27°52' W 082°33'1 1.4
2014-Apr-09 17:33N 27°50' W 082°34'4 4.3
2014-Apr-09 16:33N 27°47' W 082°31'  

Dump ship's entire track history

sailing weather and tide predictions

Christian Reinauer — WDA6472 — position and weather